Time;durP1;ratioP1;P1;durP2;ratioP2;P2;SDS_P1;SDS_P2;PMS_P1;PMS_P2;Temp;Humidity;BMP_temperature;BMP_pressure;BME280_temperature;BME280_humidity;BME280_pressure;Samples;Min_cycle;Max_cycle;Signal;HPM_P1;HPM_P2
2023/07/26 00:00:36;;;;;;;1.13;0.63;;;29.60;63.60;;;;;;4832175;29;20202;-85
2023/07/26 00:03:04;;;;;;;1.15;0.73;;;29.60;63.70;;;;;;4837068;29;20773;-86
2023/07/26 00:05:33;;;;;;;0.77;0.50;;;29.50;63.80;;;;;;4836763;29;20235;-87
2023/07/26 00:08:01;;;;;;;0.73;0.65;;;29.50;64.00;;;;;;4836989;29;20198;-85
2023/07/26 00:10:31;;;;;;;0.45;0.45;;;29.50;64.10;;;;;;4828420;29;20203;-87
2023/07/26 00:13:00;;;;;;;0.68;0.60;;;29.50;64.20;;;;;;4843190;29;20237;-87
2023/07/26 00:15:28;;;;;;;0.70;0.70;;;29.40;64.30;;;;;;4849143;29;20279;-84
2023/07/26 00:17:57;;;;;;;1.25;0.80;;;29.40;64.50;;;;;;4849344;29;20225;-85
2023/07/26 00:20:25;;;;;;;0.50;0.50;;;29.40;65.60;;;;;;4850854;29;20670;-86
2023/07/26 00:22:54;;;;;;;0.95;0.55;;;29.40;64.80;;;;;;4852538;29;20205;-87
2023/07/26 00:25:22;;;;;;;1.63;1.45;;;29.30;64.80;;;;;;4853097;29;20213;-86
2023/07/26 00:27:52;;;;;;;0.85;0.73;;;29.30;65.00;;;;;;4855750;29;20218;-86
2023/07/26 00:30:21;;;;;;;1.55;0.75;;;29.30;65.00;;;;;;4854505;29;20295;-86
2023/07/26 00:32:49;;;;;;;1.23;0.73;;;29.20;65.10;;;;;;4850066;29;20206;-86
2023/07/26 00:35:22;;;;;;;1.95;1.30;;;29.20;65.40;;;;;;4848415;29;20727;-86
2023/07/26 00:37:51;;;;;;;1.60;0.73;;;29.20;65.50;;;;;;4857558;29;20206;-86
2023/07/26 00:40:20;;;;;;;1.00;0.95;;;29.10;65.70;;;;;;4859948;29;20197;-88
2023/07/26 00:42:48;;;;;;;1.48;1.17;;;29.10;65.80;;;;;;4859317;29;20206;-86
2023/07/26 00:45:18;;;;;;;0.60;0.60;;;29.00;65.90;;;;;;4857599;29;20233;-86
2023/07/26 00:47:47;;;;;;;1.70;0.80;;;29.00;66.20;;;;;;4860146;29;20206;-86
2023/07/26 00:50:16;;;;;;;2.22;1.13;;;29.00;66.90;;;;;;4859791;29;20544;-88
2023/07/26 00:52:45;;;;;;;0.80;0.80;;;28.90;67.10;;;;;;4860435;29;20202;-84
2023/07/26 00:55:14;;;;;;;0.63;0.63;;;28.90;67.20;;;;;;4857850;29;20553;-88
2023/07/26 00:57:44;;;;;;;9.60;1.73;;;28.80;67.10;;;;;;4860323;29;20289;-87
2023/07/26 01:00:14;;;;;;;0.50;0.50;;;28.80;67.20;;;;;;4857316;29;20213;-87
2023/07/26 01:02:43;;;;;;;1.42;1.25;;;28.80;67.40;;;;;;4857883;29;20230;-87
2023/07/26 01:05:12;;;;;;;0.90;0.50;;;28.70;67.40;;;;;;4860248;29;20255;-87
2023/07/26 01:07:52;;;;;;;1.90;1.15;;;28.70;67.60;;;;;;4860085;29;20197;-87
2023/07/26 01:10:25;;;;;;;0.68;0.68;;;28.70;67.60;;;;;;4858373;29;20194;-88
2023/07/26 01:12:55;;;;;;;2.22;0.93;;;28.70;67.90;;;;;;4860078;29;20226;-86
2023/07/26 01:15:30;;;;;;;1.33;1.05;;;28.60;67.90;;;;;;4859089;29;20222;-88
2023/07/26 01:18:10;;;;;;;3.92;1.70;;;28.60;68.20;;;;;;4858819;29;20208;-86
2023/07/26 01:20:39;;;;;;;2.53;1.98;;;28.50;69.00;;;;;;4855859;29;20294;-87
2023/07/26 01:23:10;;;;;;;5.32;1.48;;;28.50;68.20;;;;;;4846945;29;20216;-87
2023/07/26 01:25:38;;;;;;;9.82;3.22;;;28.50;68.20;;;;;;4856906;29;20221;-87
2023/07/26 01:28:07;;;;;;;7.15;2.38;;;28.50;68.40;;;;;;4858899;29;20202;-87
2023/07/26 01:30:36;;;;;;;8.05;3.10;;;28.40;68.60;;;;;;4857839;29;20202;-85
2023/07/26 01:33:07;;;;;;;4.80;2.45;;;28.40;68.70;;;;;;4857621;29;20221;-85
2023/07/26 01:35:37;;;;;;;7.03;2.58;;;28.40;68.70;;;;;;4858601;29;20206;-85
2023/07/26 01:38:07;;;;;;;3.13;2.83;;;28.30;68.80;;;;;;4857972;29;20207;-87
2023/07/26 01:40:37;;;;;;;6.88;3.85;;;28.30;68.80;;;;;;4860968;29;20206;-87
2023/07/26 01:43:07;;;;;;;5.85;3.70;;;28.30;69.00;;;;;;4857978;29;20938;-85
2023/07/26 01:45:36;;;;;;;6.32;3.45;;;28.30;69.20;;;;;;4856939;29;20597;-86
2023/07/26 01:48:05;;;;;;;5.45;4.10;;;28.20;69.40;;;;;;4852363;29;20563;-85
2023/07/26 01:50:36;;;;;;;4.82;2.40;;;28.20;69.50;;;;;;4848637;29;20277;-88
2023/07/26 01:53:05;;;;;;;3.53;1.88;;;28.20;69.60;;;;;;4858526;29;21443;-86
2023/07/26 01:55:33;;;;;;;4.95;2.83;;;28.10;69.70;;;;;;4857348;29;20209;-86
2023/07/26 01:58:03;;;;;;;8.35;2.00;;;28.10;69.90;;;;;;4854312;29;20194;-85
2023/07/26 02:00:32;;;;;;;6.60;2.47;;;28.10;70.10;;;;;;4857811;29;20206;-86
2023/07/26 02:03:00;;;;;;;12.38;2.53;;;28.00;70.50;;;;;;4859347;29;20202;-86
2023/07/26 02:05:29;;;;;;;15.00;4.32;;;28.00;70.50;;;;;;4856955;29;20229;-86
2023/07/26 02:07:57;;;;;;;3.35;2.00;;;28.00;71.30;;;;;;4855800;29;20601;-85
2023/07/26 02:10:25;;;;;;;2.25;1.45;;;27.90;71.10;;;;;;4860574;29;20210;-87
2023/07/26 02:12:54;;;;;;;3.78;1.48;;;27.90;71.10;;;;;;4847080;29;20462;-85
2023/07/26 02:15:25;;;;;;;1.30;0.85;;;27.90;71.60;;;;;;4830005;29;20198;-85
2023/07/26 02:17:54;;;;;;;1.88;0.95;;;27.80;71.50;;;;;;4840613;29;20207;-85
2023/07/26 02:20:23;;;;;;;3.60;1.23;;;27.80;71.60;;;;;;4832100;29;20263;-86
2023/07/26 02:22:52;;;;;;;7.45;1.67;;;27.80;71.70;;;;;;4834114;29;20202;-84
2023/07/26 02:25:20;;;;;;;1.88;1.35;;;27.80;72.00;;;;;;4837313;29;20231;-87
2023/07/26 02:27:49;;;;;;;2.00;1.83;;;27.70;73.00;;;;;;4834852;29;20215;-86
2023/07/26 02:30:17;;;;;;;2.78;1.48;;;27.70;73.10;;;;;;4838662;29;20210;-88
2023/07/26 02:32:48;;;;;;;1.10;1.00;;;27.70;72.80;;;;;;4839036;29;20210;-87
2023/07/26 02:35:17;;;;;;;1.38;0.90;;;27.70;72.80;;;;;;4838620;29;20206;-86
2023/07/26 02:37:45;;;;;;;3.17;1.23;;;27.70;72.80;;;;;;4836717;29;20206;-84
2023/07/26 02:40:14;;;;;;;1.00;0.90;;;27.70;72.60;;;;;;4836377;29;20652;-88
2023/07/26 02:42:43;;;;;;;1.70;1.40;;;27.60;72.50;;;;;;4840898;29;20643;-86
2023/07/26 02:45:11;;;;;;;2.75;1.48;;;27.60;72.40;;;;;;4837967;29;20309;-86
2023/07/26 02:47:41;;;;;;;0.85;0.82;;;27.60;73.10;;;;;;4837402;29;20203;-87
2023/07/26 02:50:12;;;;;;;1.30;0.70;;;27.60;72.70;;;;;;4840836;29;20883;-86
2023/07/26 02:52:40;;;;;;;0.57;0.57;;;27.60;72.70;;;;;;4837086;29;20260;-87
2023/07/26 02:55:09;;;;;;;1.23;1.10;;;27.60;72.70;;;;;;4834067;29;20198;-86
2023/07/26 02:57:38;;;;;;;1.02;1.00;;;27.60;72.90;;;;;;4837335;29;20199;-87
2023/07/26 03:00:08;;;;;;;1.23;0.80;;;27.50;72.90;;;;;;4840523;29;20202;-87
2023/07/26 03:02:36;;;;;;;1.58;1.13;;;27.50;73.60;;;;;;4834258;29;20661;-85
2023/07/26 03:05:05;;;;;;;1.67;1.13;;;27.50;73.60;;;;;;4838786;29;20312;-87
2023/07/26 03:07:35;;;;;;;1.73;1.55;;;27.50;74.20;;;;;;4838695;29;20202;-85
2023/07/26 03:10:04;;;;;;;2.58;1.00;;;27.40;73.80;;;;;;4838886;29;20211;-87
2023/07/26 03:12:32;;;;;;;1.20;1.10;;;27.40;73.80;;;;;;4837769;29;20244;-85
2023/07/26 03:15:02;;;;;;;1.60;1.27;;;27.40;74.10;;;;;;4837261;29;20557;-85
2023/07/26 03:17:30;;;;;;;3.95;1.63;;;27.40;74.10;;;;;;4837810;29;20202;-87
2023/07/26 03:20:01;;;;;;;0.52;0.50;;;27.40;74.20;;;;;;4838843;29;20206;-87
2023/07/26 03:22:29;;;;;;;3.55;1.63;;;27.40;74.70;;;;;;4836098;29;20210;-86
2023/07/26 03:24:59;;;;;;;1.23;1.05;;;27.40;75.20;;;;;;4840151;29;20242;-87
2023/07/26 03:27:28;;;;;;;2.60;1.15;;;27.40;75.00;;;;;;4837241;29;20209;-85
2023/07/26 03:29:56;;;;;;;2.45;1.08;;;27.40;75.00;;;;;;4830509;29;20209;-86
2023/07/26 03:32:25;;;;;;;1.88;1.77;;;27.40;74.90;;;;;;4837416;29;20215;-87
2023/07/26 03:34:53;;;;;;;2.85;1.98;;;27.40;74.80;;;;;;4834395;29;20686;-88
2023/07/26 03:37:21;;;;;;;1.65;0.75;;;27.40;74.80;;;;;;4837639;29;20214;-88
2023/07/26 03:39:50;;;;;;;1.25;1.15;;;27.40;74.70;;;;;;4828795;29;20210;-88
2023/07/26 03:42:19;;;;;;;1.85;1.58;;;27.40;74.70;;;;;;4824184;29;20286;-87
2023/07/26 03:44:48;;;;;;;3.05;1.25;;;27.40;74.70;;;;;;4834611;29;20572;-86
2023/07/26 03:47:16;;;;;;;0.80;0.80;;;27.40;74.70;;;;;;4826409;29;20208;-85
2023/07/26 03:49:45;;;;;;;0.50;0.50;;;27.40;74.60;;;;;;4834605;29;20655;-87
2023/07/26 03:52:13;;;;;;;0.90;0.65;;;27.40;74.70;;;;;;4832252;29;20206;-85
2023/07/26 03:54:41;;;;;;;1.38;0.90;;;27.50;74.70;;;;;;4838475;29;20207;-87
2023/07/26 03:57:11;;;;;;;0.75;0.75;;;27.50;74.70;;;;;;4835190;29;20198;-86
2023/07/26 03:59:41;;;;;;;1.27;1.15;;;27.50;74.70;;;;;;4834947;29;20214;-86
2023/07/26 04:02:09;;;;;;;1.17;0.65;;;27.50;75.50;;;;;;4836492;29;20199;-86
2023/07/26 04:04:38;;;;;;;1.48;0.88;;;27.50;75.30;;;;;;4837667;29;20227;-88
2023/07/26 04:07:06;;;;;;;0.50;0.40;;;27.50;75.20;;;;;;4838789;29;20236;-86
2023/07/26 04:09:35;;;;;;;2.40;1.30;;;27.50;75.30;;;;;;4839822;29;20234;-85
2023/07/26 04:12:04;;;;;;;1.30;1.02;;;27.60;75.50;;;;;;4847022;29;20233;-86
2023/07/26 04:14:33;;;;;;;1.10;0.50;;;27.60;75.40;;;;;;4856092;29;20570;-86
2023/07/26 04:17:03;;;;;;;1.70;0.80;;;27.70;75.30;;;;;;4855172;29;20198;-87
2023/07/26 04:19:31;;;;;;;1.05;1.05;;;27.70;75.40;;;;;;4855160;29;20206;-85
2023/07/26 04:22:00;;;;;;;0.65;0.63;;;27.70;75.50;;;;;;4857979;29;20201;-89
2023/07/26 04:24:29;;;;;;;1.50;1.05;;;27.70;75.50;;;;;;4855680;29;20204;-87
2023/07/26 04:26:57;;;;;;;1.00;0.85;;;27.70;75.50;;;;;;4855419;29;20232;-86
2023/07/26 04:29:26;;;;;;;2.63;0.70;;;27.80;75.70;;;;;;4858233;29;20455;-88
2023/07/26 04:31:54;;;;;;;0.60;0.55;;;27.80;75.50;;;;;;4857971;29;20618;-87
2023/07/26 04:34:24;;;;;;;4.05;1.98;;;27.90;75.50;;;;;;4857494;29;20250;-88
2023/07/26 04:36:52;;;;;;;0.73;0.57;;;27.90;75.60;;;;;;4857874;29;20692;-86
2023/07/26 04:39:21;;;;;;;1.50;1.08;;;27.90;75.50;;;;;;4857017;29;20216;-85
2023/07/26 04:41:49;;;;;;;1.70;1.45;;;28.00;75.70;;;;;;4856647;29;20645;-87
2023/07/26 04:44:18;;;;;;;1.23;1.00;;;28.00;75.80;;;;;;4854644;29;20202;-87
2023/07/26 04:46:46;;;;;;;20.77;1.90;;;28.10;75.90;;;;;;4856322;29;20698;-86
2023/07/26 04:49:16;;;;;;;0.55;0.45;;;28.10;75.90;;;;;;4858446;29;20206;-86
2023/07/26 04:51:45;;;;;;;7.43;2.50;;;28.20;76.10;;;;;;4854838;29;20271;-86
2023/07/26 04:54:15;;;;;;;7.38;1.48;;;28.20;76.30;;;;;;4858647;29;20258;-87
2023/07/26 04:56:43;;;;;;;2.40;0.82;;;28.20;76.20;;;;;;4851092;29;20650;-86
2023/07/26 04:59:12;;;;;;;11.70;1.33;;;28.30;76.40;;;;;;4853206;29;20230;-86
2023/07/26 05:01:40;;;;;;;1.50;1.17;;;28.30;76.50;;;;;;4847256;29;20206;-87
2023/07/26 05:04:10;;;;;;;1.67;1.02;;;28.30;76.80;;;;;;4848409;29;20216;-86
2023/07/26 05:06:39;;;;;;;1.35;1.25;;;28.30;76.40;;;;;;4859637;29;20282;-86
2023/07/26 05:09:09;;;;;;;1.80;0.65;;;28.30;76.40;;;;;;4859846;29;20312;-86
2023/07/26 05:11:37;;;;;;;0.95;0.82;;;28.40;76.40;;;;;;4853790;29;20697;-85
2023/07/26 05:14:06;;;;;;;0.82;0.65;;;28.40;76.20;;;;;;4833151;29;20282;-85
2023/07/26 05:16:34;;;;;;;1.63;1.17;;;28.40;76.00;;;;;;4837573;29;20575;-85
2023/07/26 05:19:04;;;;;;;1.48;1.05;;;28.40;76.10;;;;;;4842724;29;20206;-86
2023/07/26 05:21:33;;;;;;;0.82;0.73;;;28.50;76.20;;;;;;4836320;29;20202;-85
2023/07/26 05:24:02;;;;;;;1.23;0.90;;;28.50;75.90;;;;;;4833586;29;20206;-87
2023/07/26 05:26:32;;;;;;;1.42;0.90;;;28.60;75.80;;;;;;4839061;29;20226;-85
2023/07/26 05:29:00;;;;;;;0.68;0.68;;;28.60;75.70;;;;;;4839938;29;20636;-85
2023/07/26 05:31:37;;;;;;;1.15;0.65;;;28.70;75.70;;;;;;4829717;29;20209;-94
2023/07/26 05:34:05;;;;;;;1.67;1.10;;;28.70;75.60;;;;;;4829323;29;20297;-84
2023/07/26 05:36:34;;;;;;;1.90;1.02;;;28.80;75.60;;;;;;4833230;29;20281;-85
2023/07/26 05:39:02;;;;;;;1.17;0.93;;;28.90;75.50;;;;;;4835974;29;20214;-84
2023/07/26 05:41:32;;;;;;;7.47;1.92;;;29.00;75.50;;;;;;4835878;29;20515;-85
2023/07/26 05:44:01;;;;;;;1.77;1.58;;;29.00;75.50;;;;;;4837708;29;20214;-85
2023/07/26 05:46:29;;;;;;;1.77;1.30;;;29.10;75.40;;;;;;4834688;29;20257;-85
2023/07/26 05:49:00;;;;;;;0.80;0.77;;;29.20;75.50;;;;;;4833422;29;20262;-85
2023/07/26 05:51:28;;;;;;;0.70;0.55;;;29.20;75.60;;;;;;4838689;29;20217;-83
2023/07/26 05:53:57;;;;;;;5.15;1.35;;;29.30;75.50;;;;;;4829057;29;20209;-85
2023/07/26 05:56:26;;;;;;;3.45;1.83;;;29.40;75.40;;;;;;4840771;29;20243;-83
2023/07/26 05:58:55;;;;;;;1.58;1.23;;;29.40;75.20;;;;;;4835274;29;20214;-85
2023/07/26 06:01:24;;;;;;;2.67;0.52;;;29.50;75.10;;;;;;4839363;29;20606;-85
2023/07/26 06:03:53;;;;;;;4.65;1.40;;;29.50;75.00;;;;;;4839574;29;20247;-85
2023/07/26 06:06:21;;;;;;;0.63;0.63;;;29.60;75.00;;;;;;4839801;29;20254;-83
2023/07/26 06:08:50;;;;;;;0.85;0.52;;;29.60;74.90;;;;;;4838807;29;20202;-83
2023/07/26 06:11:19;;;;;;;0.47;0.43;;;29.70;74.90;;;;;;4841551;29;20226;-83
2023/07/26 06:13:47;;;;;;;0.93;0.50;;;29.80;74.90;;;;;;4855810;29;20206;-86
2023/07/26 06:16:17;;;;;;;0.60;0.60;;;29.80;74.80;;;;;;4859580;29;20292;-83
2023/07/26 06:18:46;;;;;;;1.33;1.00;;;29.90;74.70;;;;;;4856164;29;20518;-82
2023/07/26 06:21:15;;;;;;;1.60;0.95;;;29.90;74.70;;;;;;4849030;29;20202;-83
2023/07/26 06:23:43;;;;;;;0.57;0.57;;;29.90;74.50;;;;;;4856741;29;20206;-85
2023/07/26 06:26:12;;;;;;;0.93;0.65;;;29.90;74.30;;;;;;4857737;29;20209;-85
2023/07/26 06:28:41;;;;;;;1.17;0.68;;;30.00;74.20;;;;;;4856407;29;20201;-84
2023/07/26 06:31:09;;;;;;;2.15;1.17;;;30.00;74.10;;;;;;4852097;29;20208;-82
2023/07/26 06:33:39;;;;;;;1.48;0.80;;;30.10;74.00;;;;;;4851015;29;20243;-84
2023/07/26 06:36:07;;;;;;;1.40;0.70;;;30.10;73.80;;;;;;4851988;29;20198;-85
2023/07/26 06:38:37;;;;;;;1.70;1.23;;;30.10;73.60;;;;;;4857714;29;20290;-83
2023/07/26 06:41:06;;;;;;;0.80;0.80;;;30.20;73.50;;;;;;4849839;29;20202;-83
2023/07/26 06:43:36;;;;;;;1.48;1.10;;;30.30;73.30;;;;;;4851534;29;20288;-83
2023/07/26 06:46:04;;;;;;;0.93;0.80;;;30.30;73.00;;;;;;4856022;29;22565;-83
2023/07/26 06:48:33;;;;;;;14.40;0.85;;;30.40;72.80;;;;;;4847570;29;20312;-83
2023/07/26 06:51:26;;;;;;;4.03;0.82;;;30.50;72.90;;;;;;4857775;29;20207;-91
2023/07/26 06:54:10;;;;;;;2.72;1.23;;;30.50;72.60;;;;;;4856576;29;20665;-84
2023/07/26 06:56:37;;;;;;;1.40;0.43;;;30.60;72.40;;;;;;4858679;29;20229;-84
2023/07/26 06:59:11;;;;;;;0.60;0.45;;;30.70;72.20;;;;;;4858005;29;20205;-83
2023/07/26 07:01:39;;;;;;;2.00;1.05;;;30.70;72.10;;;;;;4856432;29;20194;-83
2023/07/26 07:04:08;;;;;;;2.33;1.23;;;30.80;71.90;;;;;;4846204;29;20195;-83
2023/07/26 07:06:42;;;;;;;2.05;1.27;;;30.80;71.90;;;;;;4850885;29;20630;-84
2023/07/26 07:09:13;;;;;;;0.65;0.60;;;30.90;71.90;;;;;;4854143;29;20206;-85
2023/07/26 07:11:41;;;;;;;1.23;0.65;;;31.00;71.80;;;;;;4843334;29;20234;-83
2023/07/26 07:14:10;;;;;;;2.10;1.83;;;31.00;71.60;;;;;;4851940;29;20198;-82
2023/07/26 07:16:39;;;;;;;1.08;0.98;;;31.10;71.30;;;;;;4851297;29;20205;-82
2023/07/26 07:19:07;;;;;;;1.98;1.27;;;31.10;70.90;;;;;;4851453;29;20204;-82
2023/07/26 07:21:36;;;;;;;2.60;2.05;;;31.20;70.80;;;;;;4849484;29;20313;-83
2023/07/26 07:24:06;;;;;;;2.65;0.85;;;31.20;70.60;;;;;;4852522;29;20202;-85
2023/07/26 07:26:36;;;;;;;0.90;0.90;;;31.30;70.50;;;;;;4851363;29;20205;-81
2023/07/26 07:29:04;;;;;;;1.58;0.93;;;31.40;70.40;;;;;;4849178;29;20209;-81
2023/07/26 07:31:33;;;;;;;1.45;1.13;;;31.50;70.50;;;;;;4850187;29;20209;-82
2023/07/26 07:34:02;;;;;;;2.45;0.75;;;31.50;70.30;;;;;;4847453;29;20212;-82
2023/07/26 07:36:30;;;;;;;1.35;1.25;;;31.50;70.00;;;;;;4850809;29;20198;-82
2023/07/26 07:38:59;;;;;;;0.68;0.65;;;31.60;69.90;;;;;;4854498;29;20210;-83
2023/07/26 07:41:27;;;;;;;10.15;1.65;;;31.70;69.60;;;;;;4850027;29;20293;-82
2023/07/26 07:43:57;;;;;;;2.47;1.42;;;31.80;69.10;;;;;;4853786;29;20292;-82
2023/07/26 07:46:28;;;;;;;1.83;1.20;;;31.80;69.00;;;;;;4850104;29;20316;-81
2023/07/26 07:48:57;;;;;;;1.13;1.02;;;31.90;68.60;;;;;;4854997;29;20304;-82
2023/07/26 07:51:25;;;;;;;1.30;1.08;;;31.90;68.40;;;;;;4855034;29;20209;-84
2023/07/26 07:53:54;;;;;;;6.72;2.42;;;32.00;68.30;;;;;;4853409;29;20211;-85
2023/07/26 07:56:22;;;;;;;1.23;1.13;;;32.00;67.90;;;;;;4849246;29;20212;-83
2023/07/26 07:58:50;;;;;;;2.08;1.33;;;32.10;67.80;;;;;;4853955;29;20660;-83
2023/07/26 08:01:20;;;;;;;2.55;1.73;;;32.20;67.50;;;;;;4857136;29;20655;-83
2023/07/26 08:03:49;;;;;;;2.25;1.13;;;32.20;65.40;;;;;;4856197;29;20205;-82
2023/07/26 08:06:17;;;;;;;1.63;0.90;;;32.30;65.00;;;;;;4853787;29;20211;-82
2023/07/26 08:08:46;;;;;;;2.95;1.60;;;32.30;64.10;;;;;;4855606;29;20579;-82
2023/07/26 08:11:14;;;;;;;7.25;1.65;;;32.40;64.50;;;;;;4855467;29;20227;-82
2023/07/26 08:13:44;;;;;;;3.78;1.25;;;32.50;64.20;;;;;;4833929;29;20246;-83
2023/07/26 08:16:12;;;;;;;3.15;1.85;;;32.60;62.50;;;;;;4835173;29;20924;-81
2023/07/26 08:18:42;;;;;;;0.85;0.70;;;32.70;60.10;;;;;;4835294;29;20419;-82
2023/07/26 08:21:12;;;;;;;5.30;0.73;;;32.70;58.60;;;;;;4832149;29;20231;-82
2023/07/26 08:23:41;;;;;;;0.77;0.68;;;32.90;58.70;;;;;;4833881;29;20226;-84
2023/07/26 08:26:10;;;;;;;7.57;2.47;;;32.90;58.40;;;;;;4835520;29;20202;-81
2023/07/26 08:28:38;;;;;;;1.15;1.05;;;33.00;54.80;;;;;;4836687;29;20218;-85
2023/07/26 08:31:07;;;;;;;2.75;1.60;;;33.10;55.00;;;;;;4830521;29;20205;-84
2023/07/26 08:33:35;;;;;;;1.70;1.58;;;33.20;55.20;;;;;;4836717;29;20214;-83
2023/07/26 08:36:05;;;;;;;2.45;1.88;;;33.30;54.90;;;;;;4835635;29;20746;-83
2023/07/26 08:38:35;;;;;;;3.25;1.83;;;33.40;55.50;;;;;;4835434;29;20198;-84
2023/07/26 08:41:03;;;;;;;1.67;1.15;;;33.50;53.60;;;;;;4836644;29;20206;-82
2023/07/26 08:43:36;;;;;;;3.47;1.83;;;33.60;52.10;;;;;;4837098;29;20202;-82
2023/07/26 08:46:07;;;;;;;0.75;0.75;;;33.60;51.50;;;;;;4831540;29;20199;-80
2023/07/26 08:48:38;;;;;;;1.73;1.63;;;33.70;52.10;;;;;;4831165;29;20226;-81
2023/07/26 08:51:09;;;;;;;4.63;1.48;;;33.80;51.90;;;;;;4837478;29;20305;-81
2023/07/26 08:53:39;;;;;;;2.22;1.75;;;34.00;51.70;;;;;;4833631;29;20199;-85
2023/07/26 08:56:09;;;;;;;3.53;1.00;;;34.00;51.00;;;;;;4836260;29;20219;-82
2023/07/26 08:58:37;;;;;;;1.23;1.13;;;34.10;50.50;;;;;;4830391;29;20243;-83
2023/07/26 09:01:06;;;;;;;1.63;1.25;;;34.10;50.00;;;;;;4841258;29;20202;-84
2023/07/26 09:03:36;;;;;;;3.80;1.45;;;34.20;50.10;;;;;;4841750;29;20206;-84
2023/07/26 09:06:06;;;;;;;2.47;1.55;;;34.30;50.70;;;;;;4842409;29;20195;-81
2023/07/26 09:08:36;;;;;;;3.80;2.25;;;34.40;50.70;;;;;;4838671;29;20282;-82
2023/07/26 09:11:23;;;;;;;3.72;1.92;;;34.50;50.90;;;;;;4840398;29;20205;-81
2023/07/26 09:13:55;;;;;;;0.98;0.88;;;34.60;51.00;;;;;;4833433;29;20202;-81
2023/07/26 09:16:27;;;;;;;4.88;1.42;;;34.60;50.50;;;;;;4836555;29;20206;-82
2023/07/26 09:19:00;;;;;;;2.70;1.35;;;34.70;51.10;;;;;;4836630;29;20234;-81
2023/07/26 09:21:29;;;;;;;1.10;0.93;;;34.80;50.20;;;;;;4836520;29;20286;-83
2023/07/26 09:24:03;;;;;;;2.10;1.35;;;34.80;50.80;;;;;;4839776;29;20206;-82
2023/07/26 09:26:35;;;;;;;2.50;1.85;;;34.90;51.00;;;;;;4840093;29;20195;-82
2023/07/26 09:29:08;;;;;;;2.90;1.90;;;34.90;50.60;;;;;;4837678;29;20222;-83
2023/07/26 09:31:38;;;;;;;2.22;1.33;;;35.00;50.90;;;;;;4836681;29;20703;-84
2023/07/26 09:34:09;;;;;;;0.80;0.65;;;35.00;51.10;;;;;;4833424;29;20256;-84
2023/07/26 09:36:48;;;;;;;0.93;0.88;;;35.10;51.40;;;;;;4832996;29;20698;-83
2023/07/26 09:39:19;;;;;;;7.15;1.45;;;35.20;51.50;;;;;;4832850;29;20202;-82
2023/07/26 09:41:49;;;;;;;0.73;0.73;;;35.30;51.50;;;;;;4836930;29;20222;-83
2023/07/26 09:44:19;;;;;;;0.73;0.65;;;35.30;50.40;;;;;;4830952;29;20233;-80
2023/07/26 09:46:49;;;;;;;5.15;1.48;;;35.30;50.50;;;;;;4839609;29;20638;-80
2023/07/26 09:49:19;;;;;;;5.88;1.77;;;35.40;50.90;;;;;;4840983;29;20290;-82
2023/07/26 09:51:54;;;;;;;1.15;0.80;;;35.40;51.00;;;;;;4840751;29;20222;-82
2023/07/26 09:54:28;;;;;;;5.50;1.70;;;35.50;51.30;;;;;;4840765;29;20703;-84
2023/07/26 09:57:00;;;;;;;2.60;2.08;;;35.60;51.30;;;;;;4839646;29;20258;-82
2023/07/26 09:59:30;;;;;;;1.45;1.08;;;35.60;51.20;;;;;;4830786;29;20214;-81
2023/07/26 10:02:02;;;;;;;3.92;2.25;;;35.60;50.40;;;;;;4837273;29;20203;-84
2023/07/26 10:04:40;;;;;;;1.98;1.83;;;35.70;50.10;;;;;;4835434;29;20569;-82
2023/07/26 10:07:12;;;;;;;6.07;1.80;;;35.70;50.00;;;;;;4839211;29;20201;-81
2023/07/26 10:09:44;;;;;;;4.45;2.35;;;35.80;49.60;;;;;;4833692;29;20230;-81
2023/07/26 10:12:13;;;;;;;2.42;1.40;;;35.80;49.60;;;;;;4829747;29;20287;-83
2023/07/26 10:14:43;;;;;;;2.28;1.83;;;35.90;48.70;;;;;;4838243;29;20334;-83
2023/07/26 10:17:14;;;;;;;1.48;0.77;;;36.00;48.80;;;;;;4833275;29;20222;-85
2023/07/26 10:19:47;;;;;;;3.30;1.75;;;35.90;48.10;;;;;;4833047;29;20199;-82
2023/07/26 10:22:16;;;;;;;5.18;1.42;;;36.10;48.40;;;;;;4837816;29;20297;-81
2023/07/26 10:24:46;;;;;;;2.60;1.75;;;36.10;48.70;;;;;;4831692;29;20665;-80
2023/07/26 10:27:15;;;;;;;21.65;0.88;;;36.10;48.90;;;;;;4837163;29;20199;-80
2023/07/26 10:29:44;;;;;;;1.10;0.95;;;36.20;48.90;;;;;;4837397;29;20657;-81
2023/07/26 10:32:13;;;;;;;6.20;1.90;;;36.20;48.60;;;;;;4831394;29;20206;-82
2023/07/26 10:34:43;;;;;;;6.13;1.75;;;36.20;48.30;;;;;;4828281;29;20217;-83
2023/07/26 10:37:19;;;;;;;2.17;1.67;;;36.20;47.10;;;;;;4830269;29;20210;-82
2023/07/26 10:39:50;;;;;;;2.10;1.90;;;36.30;47.40;;;;;;4837528;29;20202;-81
2023/07/26 10:42:26;;;;;;;2.58;1.48;;;36.40;47.90;;;;;;4837836;29;20199;-82
2023/07/26 10:44:55;;;;;;;1.35;1.20;;;36.50;47.90;;;;;;4835233;29;20202;-83
2023/07/26 10:47:24;;;;;;;2.83;1.67;;;36.40;47.20;;;;;;4835480;29;20199;-82
2023/07/26 10:49:56;;;;;;;9.13;1.92;;;36.60;45.90;;;;;;4838575;29;20233;-83
2023/07/26 10:52:36;;;;;;;1.75;1.17;;;36.50;44.80;;;;;;4840179;29;20217;-81
2023/07/26 10:58:00;;;;;;;2.42;1.83;;;36.60;44.70;;;;;;5098821;27;20575;-81
2023/07/26 11:00:37;;;;;;;2.75;2.15;;;36.80;44.70;;;;;;5090014;28;20219;-83
2023/07/26 11:03:05;;;;;;;5.30;2.72;;;36.80;44.70;;;;;;5102569;28;20202;-85
2023/07/26 11:05:40;;;;;;;4.88;2.55;;;36.80;44.60;;;;;;5092447;28;20193;-84
2023/07/26 11:08:11;;;;;;;5.85;0.88;;;36.90;45.30;;;;;;5104071;28;20648;-87
2023/07/26 11:10:51;;;;;;;1.90;1.70;;;37.00;45.70;;;;;;5103425;28;20193;-87
2023/07/26 11:13:29;;;;;;;1.90;1.55;;;37.00;44.40;;;;;;5089457;28;20192;-86
2023/07/26 11:16:01;;;;;;;3.38;1.10;;;37.10;44.30;;;;;;5085321;28;20253;-87
2023/07/26 11:18:46;;;;;;;1.30;1.20;;;37.20;45.00;;;;;;5087410;28;20194;-88
2023/07/26 11:21:17;;;;;;;0.95;0.93;;;37.20;44.60;;;;;;5093165;28;20194;-86
2023/07/26 11:23:46;;;;;;;2.42;1.35;;;37.20;45.00;;;;;;5087826;28;20648;-85
2023/07/26 11:26:14;;;;;;;1.08;0.98;;;37.30;43.50;;;;;;5089281;28;20194;-84
2023/07/26 11:28:44;;;;;;;1.80;1.02;;;37.40;43.30;;;;;;5094781;28;20198;-85
2023/07/26 11:31:19;;;;;;;4.78;1.75;;;37.50;43.60;;;;;;5086236;28;20675;-86
2023/07/26 11:33:48;;;;;;;2.00;1.83;;;37.50;43.20;;;;;;5090822;28;20212;-83
2023/07/26 11:36:20;;;;;;;7.13;2.00;;;37.50;43.00;;;;;;5090115;28;20213;-85
2023/07/26 11:38:49;;;;;;;2.42;1.83;;;37.60;43.00;;;;;;5088258;28;20193;-85
2023/07/26 11:41:18;;;;;;;2.05;1.50;;;37.60;42.50;;;;;;5087299;28;20720;-84
2023/07/26 11:43:48;;;;;;;1.50;1.40;;;37.60;42.50;;;;;;5087012;28;20201;-86
2023/07/26 11:46:26;;;;;;;1.63;1.23;;;37.60;42.30;;;;;;5097872;28;20194;-86
2023/07/26 11:48:55;;;;;;;2.00;1.80;;;37.60;42.30;;;;;;5095097;28;20653;-87
2023/07/26 11:51:23;;;;;;;1.15;1.00;;;37.70;43.00;;;;;;5097002;28;20201;-85
2023/07/26 11:53:55;;;;;;;5.82;1.83;;;37.70;42.50;;;;;;5090014;28;20556;-86
2023/07/26 11:56:30;;;;;;;1.40;1.05;;;37.70;41.60;;;;;;5103140;28;20260;-86
2023/07/26 11:59:01;;;;;;;3.47;2.20;;;37.80;41.20;;;;;;5094090;28;20586;-86
2023/07/26 12:01:30;;;;;;;1.60;1.10;;;37.80;41.50;;;;;;5094469;28;20202;-87
2023/07/26 12:04:00;;;;;;;0.90;0.90;;;37.90;41.20;;;;;;5088036;28;20286;-85
2023/07/26 12:06:30;;;;;;;1.02;0.93;;;37.90;40.90;;;;;;5087373;28;20216;-86
2023/07/26 12:09:09;;;;;;;3.67;1.30;;;38.00;41.70;;;;;;5074948;28;20216;-84
2023/07/26 12:11:39;;;;;;;0.93;0.60;;;38.10;41.50;;;;;;5083742;28;20185;-84
2023/07/26 12:14:09;;;;;;;2.63;1.33;;;38.10;41.00;;;;;;5083411;28;20190;-82
2023/07/26 12:16:38;;;;;;;1.95;1.30;;;38.20;40.80;;;;;;5085750;28;20209;-86
2023/07/26 12:19:07;;;;;;;3.13;0.65;;;38.20;41.50;;;;;;5091102;28;20197;-85
2023/07/26 12:21:35;;;;;;;1.75;0.80;;;38.20;41.50;;;;;;5078430;28;20646;-86
2023/07/26 12:24:17;;;;;;;1.73;1.33;;;38.20;41.00;;;;;;5075677;28;20284;-86
2023/07/26 12:26:47;;;;;;;14.23;1.40;;;38.30;41.40;;;;;;5107669;28;20760;-88
2023/07/26 12:29:17;;;;;;;5.43;1.23;;;38.30;41.40;;;;;;5075392;28;20190;-85
2023/07/26 12:31:46;;;;;;;1.23;0.50;;;38.30;41.50;;;;;;5082169;28;20725;-88
2023/07/26 12:34:15;;;;;;;2.65;1.27;;;38.30;41.70;;;;;;5086882;28;20193;-86
2023/07/26 12:36:50;;;;;;;3.15;1.92;;;38.30;41.50;;;;;;5076182;28;20677;-85
2023/07/26 12:39:21;;;;;;;2.40;1.33;;;38.30;41.30;;;;;;5077350;28;20197;-88
2023/07/26 12:41:50;;;;;;;1.77;1.17;;;38.40;41.50;;;;;;5079878;28;20599;-87
2023/07/26 12:44:21;;;;;;;0.63;0.60;;;38.40;41.80;;;;;;5072382;28;20691;-86
2023/07/26 12:46:49;;;;;;;8.43;0.85;;;38.40;41.10;;;;;;5075854;28;20235;-84
2023/07/26 12:49:23;;;;;;;3.30;1.42;;;38.30;40.10;;;;;;5080274;28;20641;-87
2023/07/26 12:51:51;;;;;;;2.40;1.55;;;38.40;40.70;;;;;;5082004;28;20203;-84
2023/07/26 12:54:20;;;;;;;13.00;1.25;;;38.30;40.80;;;;;;5084286;28;20194;-86
2023/07/26 12:56:53;;;;;;;6.53;2.00;;;38.40;41.00;;;;;;5077722;28;20234;-85
2023/07/26 12:59:23;;;;;;;2.17;1.58;;;38.30;41.50;;;;;;5072312;28;20840;-87
2023/07/26 13:01:52;;;;;;;3.03;1.55;;;38.40;41.50;;;;;;5075310;28;21431;-86